sensor_id;sensor_type;location;lat;lon;timestamp;P1;durP1;ratioP1;P2;durP2;ratioP2
20743;SDS011;56303;52.160;-0.428;2023-07-24T01:27:51;5.97;;;4.23;;
20743;SDS011;56303;52.160;-0.428;2023-07-24T01:30:18;6.53;;;5.80;;
20743;SDS011;56303;52.160;-0.428;2023-07-24T01:32:46;5.60;;;4.93;;
20743;SDS011;56303;52.160;-0.428;2023-07-24T01:35:13;5.70;;;5.10;;
20743;SDS011;56303;52.160;-0.428;2023-07-24T01:37:41;6.23;;;5.37;;
20743;SDS011;56303;52.160;-0.428;2023-07-24T01:40:10;6.77;;;5.57;;
20743;SDS011;56303;52.160;-0.428;2023-07-24T01:42:37;7.53;;;5.60;;
20743;SDS011;56303;52.160;-0.428;2023-07-24T01:45:04;6.93;;;5.70;;
20743;SDS011;56303;52.160;-0.428;2023-07-24T01:47:32;6.60;;;6.00;;
20743;SDS011;56303;52.160;-0.428;2023-07-24T01:49:59;6.43;;;5.83;;
20743;SDS011;56303;52.160;-0.428;2023-07-24T01:52:26;6.37;;;5.77;;
20743;SDS011;56303;52.160;-0.428;2023-07-24T01:54:53;7.03;;;5.67;;
20743;SDS011;56303;52.160;-0.428;2023-07-24T01:57:20;5.83;;;4.93;;
20743;SDS011;56303;52.160;-0.428;2023-07-24T01:59:46;6.13;;;5.27;;
20743;SDS011;56303;52.160;-0.428;2023-07-24T02:02:15;6.57;;;5.73;;
20743;SDS011;56303;52.160;-0.428;2023-07-24T02:04:42;6.80;;;6.03;;
20743;SDS011;56303;52.160;-0.428;2023-07-24T02:07:09;6.33;;;5.63;;
20743;SDS011;56303;52.160;-0.428;2023-07-24T02:09:35;5.87;;;4.97;;
20743;SDS011;56303;52.160;-0.428;2023-07-24T02:12:02;7.10;;;4.70;;
20743;SDS011;56303;52.160;-0.428;2023-07-24T02:14:30;5.70;;;4.83;;
20743;SDS011;56303;52.160;-0.428;2023-07-24T02:16:56;5.33;;;4.60;;
20743;SDS011;56303;52.160;-0.428;2023-07-24T02:19:23;7.13;;;4.50;;
20743;SDS011;56303;52.160;-0.428;2023-07-24T02:21:50;4.47;;;3.33;;
20743;SDS011;56303;52.160;-0.428;2023-07-24T02:24:17;4.37;;;3.20;;
20743;SDS011;56303;52.160;-0.428;2023-07-24T02:26:44;3.83;;;3.27;;
20743;SDS011;56303;52.160;-0.428;2023-07-24T02:29:12;4.23;;;2.70;;
20743;SDS011;56303;52.160;-0.428;2023-07-24T02:31:38;4.37;;;3.30;;
20743;SDS011;56303;52.160;-0.428;2023-07-24T02:34:05;3.90;;;3.00;;
20743;SDS011;56303;52.160;-0.428;2023-07-24T02:36:32;4.47;;;3.33;;
20743;SDS011;56303;52.160;-0.428;2023-07-24T02:38:59;4.03;;;3.07;;
20743;SDS011;56303;52.160;-0.428;2023-07-24T02:41:26;3.07;;;2.60;;
20743;SDS011;56303;52.160;-0.428;2023-07-24T02:43:53;2.80;;;2.43;;
20743;SDS011;56303;52.160;-0.428;2023-07-24T02:46:19;2.00;;;1.80;;
20743;SDS011;56303;52.160;-0.428;2023-07-24T02:48:46;1.90;;;1.80;;
20743;SDS011;56303;52.160;-0.428;2023-07-24T02:51:13;1.70;;;1.60;;
20743;SDS011;56303;52.160;-0.428;2023-07-24T02:53:40;2.03;;;1.83;;
20743;SDS011;56303;52.160;-0.428;2023-07-24T02:56:07;1.90;;;1.50;;
20743;SDS011;56303;52.160;-0.428;2023-07-24T02:58:34;1.50;;;1.40;;
20743;SDS011;56303;52.160;-0.428;2023-07-24T03:01:04;1.00;;;0.70;;
20743;SDS011;56303;52.160;-0.428;2023-07-24T03:03:33;0.60;;;0.50;;
20743;SDS011;56303;52.160;-0.428;2023-07-24T03:06:01;0.83;;;0.80;;
20743;SDS011;56303;52.160;-0.428;2023-07-24T03:08:28;2.10;;;1.10;;
20743;SDS011;56303;52.160;-0.428;2023-07-24T03:10:55;2.43;;;1.50;;
20743;SDS011;56303;52.160;-0.428;2023-07-24T03:13:21;3.10;;;1.60;;
20743;SDS011;56303;52.160;-0.428;2023-07-24T03:15:58;2.10;;;1.90;;
20743;SDS011;56303;52.160;-0.428;2023-07-24T03:18:25;4.13;;;2.30;;
20743;SDS011;56303;52.160;-0.428;2023-07-24T03:20:52;4.03;;;2.43;;
20743;SDS011;56303;52.160;-0.428;2023-07-24T03:23:19;4.83;;;2.80;;
20743;SDS011;56303;52.160;-0.428;2023-07-24T03:25:46;2.43;;;2.20;;
20743;SDS011;56303;52.160;-0.428;2023-07-24T03:28:13;4.43;;;2.47;;
20743;SDS011;56303;52.160;-0.428;2023-07-24T03:30:40;2.43;;;2.10;;
20743;SDS011;56303;52.160;-0.428;2023-07-24T03:33:07;2.27;;;1.80;;
20743;SDS011;56303;52.160;-0.428;2023-07-24T03:35:34;6.87;;;2.50;;
20743;SDS011;56303;52.160;-0.428;2023-07-24T03:38:01;2.33;;;1.50;;
20743;SDS011;56303;52.160;-0.428;2023-07-24T03:40:27;1.90;;;1.40;;
20743;SDS011;56303;52.160;-0.428;2023-07-24T03:42:54;2.20;;;1.20;;
20743;SDS011;56303;52.160;-0.428;2023-07-24T03:45:21;1.43;;;0.90;;
20743;SDS011;56303;52.160;-0.428;2023-07-24T03:47:48;2.00;;;1.20;;
20743;SDS011;56303;52.160;-0.428;2023-07-24T03:50:16;2.77;;;1.10;;
20743;SDS011;56303;52.160;-0.428;2023-07-24T03:52:43;2.23;;;1.47;;
20743;SDS011;56303;52.160;-0.428;2023-07-24T03:55:10;1.90;;;1.23;;
20743;SDS011;56303;52.160;-0.428;2023-07-24T03:57:37;4.03;;;1.50;;
20743;SDS011;56303;52.160;-0.428;2023-07-24T04:00:04;4.60;;;1.60;;
20743;SDS011;56303;52.160;-0.428;2023-07-24T04:02:31;1.80;;;1.17;;
20743;SDS011;56303;52.160;-0.428;2023-07-24T04:04:58;2.50;;;1.80;;
20743;SDS011;56303;52.160;-0.428;2023-07-24T04:07:25;2.60;;;2.00;;
20743;SDS011;56303;52.160;-0.428;2023-07-24T04:09:52;4.20;;;2.50;;
20743;SDS011;56303;52.160;-0.428;2023-07-24T04:12:19;3.53;;;2.50;;
20743;SDS011;56303;52.160;-0.428;2023-07-24T04:14:46;4.27;;;3.20;;
20743;SDS011;56303;52.160;-0.428;2023-07-24T04:17:15;4.33;;;3.10;;
20743;SDS011;56303;52.160;-0.428;2023-07-24T04:19:42;5.10;;;3.40;;
20743;SDS011;56303;52.160;-0.428;2023-07-24T04:22:09;4.13;;;3.17;;
20743;SDS011;56303;52.160;-0.428;2023-07-24T04:24:36;4.37;;;3.00;;
20743;SDS011;56303;52.160;-0.428;2023-07-24T04:27:03;5.10;;;3.60;;
20743;SDS011;56303;52.160;-0.428;2023-07-24T04:29:29;4.30;;;2.97;;
20743;SDS011;56303;52.160;-0.428;2023-07-24T04:31:56;4.60;;;3.40;;
20743;SDS011;56303;52.160;-0.428;2023-07-24T04:34:23;4.30;;;2.80;;
20743;SDS011;56303;52.160;-0.428;2023-07-24T04:36:50;3.60;;;2.80;;
20743;SDS011;56303;52.160;-0.428;2023-07-24T04:39:17;5.97;;;2.73;;
20743;SDS011;56303;52.160;-0.428;2023-07-24T04:41:44;4.27;;;3.03;;
20743;SDS011;56303;52.160;-0.428;2023-07-24T04:44:11;3.93;;;2.50;;
20743;SDS011;56303;52.160;-0.428;2023-07-24T04:46:37;6.23;;;2.80;;
20743;SDS011;56303;52.160;-0.428;2023-07-24T04:49:04;4.90;;;2.67;;
20743;SDS011;56303;52.160;-0.428;2023-07-24T04:51:31;4.63;;;2.43;;
20743;SDS011;56303;52.160;-0.428;2023-07-24T04:54:01;3.97;;;2.57;;
20743;SDS011;56303;52.160;-0.428;2023-07-24T04:56:28;4.83;;;2.77;;
20743;SDS011;56303;52.160;-0.428;2023-07-24T04:58:56;5.43;;;3.00;;
20743;SDS011;56303;52.160;-0.428;2023-07-24T05:01:22;2.80;;;2.40;;
20743;SDS011;56303;52.160;-0.428;2023-07-24T05:03:49;5.53;;;2.80;;
20743;SDS011;56303;52.160;-0.428;2023-07-24T05:06:16;3.37;;;2.40;;
20743;SDS011;56303;52.160;-0.428;2023-07-24T05:08:43;3.13;;;2.60;;
20743;SDS011;56303;52.160;-0.428;2023-07-24T05:11:10;4.23;;;2.60;;
20743;SDS011;56303;52.160;-0.428;2023-07-24T05:13:37;3.10;;;2.67;;
20743;SDS011;56303;52.160;-0.428;2023-07-24T05:16:04;5.13;;;2.80;;
20743;SDS011;56303;52.160;-0.428;2023-07-24T05:18:31;4.80;;;3.07;;
20743;SDS011;56303;52.160;-0.428;2023-07-24T05:20:57;4.70;;;3.03;;
20743;SDS011;56303;52.160;-0.428;2023-07-24T05:23:24;5.73;;;3.43;;
20743;SDS011;56303;52.160;-0.428;2023-07-24T05:25:58;3.03;;;2.70;;
20743;SDS011;56303;52.160;-0.428;2023-07-24T05:28:29;4.60;;;3.23;;
20743;SDS011;56303;52.160;-0.428;2023-07-24T05:31:03;5.27;;;3.30;;
20743;SDS011;56303;52.160;-0.428;2023-07-24T05:33:31;4.47;;;3.37;;
20743;SDS011;56303;52.160;-0.428;2023-07-24T05:36:01;5.10;;;3.73;;
20743;SDS011;56303;52.160;-0.428;2023-07-24T05:38:29;5.40;;;3.60;;
20743;SDS011;56303;52.160;-0.428;2023-07-24T05:40:57;4.43;;;3.73;;
20743;SDS011;56303;52.160;-0.428;2023-07-24T05:43:25;5.63;;;3.93;;
20743;SDS011;56303;52.160;-0.428;2023-07-24T05:45:53;4.60;;;3.70;;
20743;SDS011;56303;52.160;-0.428;2023-07-24T05:48:22;5.23;;;4.27;;
20743;SDS011;56303;52.160;-0.428;2023-07-24T05:50:49;4.73;;;3.60;;
20743;SDS011;56303;52.160;-0.428;2023-07-24T05:53:17;4.67;;;3.70;;
20743;SDS011;56303;52.160;-0.428;2023-07-24T05:55:44;6.27;;;3.83;;
20743;SDS011;56303;52.160;-0.428;2023-07-24T05:58:11;3.67;;;3.30;;
20743;SDS011;56303;52.160;-0.428;2023-07-24T06:00:38;5.17;;;3.60;;
20743;SDS011;56303;52.160;-0.428;2023-07-24T06:03:05;5.53;;;3.43;;
20743;SDS011;56303;52.160;-0.428;2023-07-24T06:05:34;3.77;;;2.90;;
20743;SDS011;56303;52.160;-0.428;2023-07-24T06:08:01;5.03;;;3.50;;
20743;SDS011;56303;52.160;-0.428;2023-07-24T06:10:28;5.10;;;3.93;;
20743;SDS011;56303;52.160;-0.428;2023-07-24T06:12:55;4.67;;;3.70;;
20743;SDS011;56303;52.160;-0.428;2023-07-24T06:15:22;4.10;;;3.33;;
20743;SDS011;56303;52.160;-0.428;2023-07-24T06:17:49;4.97;;;3.47;;
20743;SDS011;56303;52.160;-0.428;2023-07-24T06:20:19;5.03;;;2.83;;
20743;SDS011;56303;52.160;-0.428;2023-07-24T06:22:46;3.90;;;3.30;;
20743;SDS011;56303;52.160;-0.428;2023-07-24T06:25:13;4.17;;;3.40;;
20743;SDS011;56303;52.160;-0.428;2023-07-24T06:27:40;5.30;;;3.73;;
20743;SDS011;56303;52.160;-0.428;2023-07-24T06:30:07;4.60;;;3.43;;
20743;SDS011;56303;52.160;-0.428;2023-07-24T06:32:41;6.13;;;3.20;;
20743;SDS011;56303;52.160;-0.428;2023-07-24T06:35:08;4.90;;;3.33;;
20743;SDS011;56303;52.160;-0.428;2023-07-24T06:37:35;4.50;;;3.23;;
20743;SDS011;56303;52.160;-0.428;2023-07-24T06:40:05;4.20;;;2.70;;
20743;SDS011;56303;52.160;-0.428;2023-07-24T06:42:33;3.90;;;2.73;;
20743;SDS011;56303;52.160;-0.428;2023-07-24T06:45:00;3.40;;;2.53;;
20743;SDS011;56303;52.160;-0.428;2023-07-24T06:47:27;5.33;;;3.07;;
20743;SDS011;56303;52.160;-0.428;2023-07-24T06:49:54;5.47;;;3.20;;
20743;SDS011;56303;52.160;-0.428;2023-07-24T06:52:21;4.73;;;2.77;;
20743;SDS011;56303;52.160;-0.428;2023-07-24T06:54:48;5.37;;;2.90;;
20743;SDS011;56303;52.160;-0.428;2023-07-24T06:57:15;4.27;;;2.67;;
20743;SDS011;56303;52.160;-0.428;2023-07-24T06:59:41;3.60;;;2.67;;
20743;SDS011;56303;52.160;-0.428;2023-07-24T07:02:08;4.87;;;2.57;;
20743;SDS011;56303;52.160;-0.428;2023-07-24T07:04:35;2.87;;;2.27;;
20743;SDS011;56303;52.160;-0.428;2023-07-24T07:07:02;6.37;;;2.53;;
20743;SDS011;56303;52.160;-0.428;2023-07-24T07:09:30;5.50;;;2.37;;
20743;SDS011;56303;52.160;-0.428;2023-07-24T07:11:57;3.03;;;2.20;;
20743;SDS011;56303;52.160;-0.428;2023-07-24T07:14:24;3.37;;;2.10;;
20743;SDS011;56303;52.160;-0.428;2023-07-24T07:16:51;7.27;;;2.90;;
20743;SDS011;56303;52.160;-0.428;2023-07-24T07:19:18;3.43;;;2.30;;
20743;SDS011;56303;52.160;-0.428;2023-07-24T07:21:44;4.80;;;2.63;;
20743;SDS011;56303;52.160;-0.428;2023-07-24T07:24:11;5.13;;;2.57;;
20743;SDS011;56303;52.160;-0.428;2023-07-24T07:26:38;5.23;;;2.57;;
20743;SDS011;56303;52.160;-0.428;2023-07-24T07:29:05;3.87;;;1.93;;
20743;SDS011;56303;52.160;-0.428;2023-07-24T07:31:32;5.83;;;2.63;;
20743;SDS011;56303;52.160;-0.428;2023-07-24T07:33:59;4.20;;;2.40;;
20743;SDS011;56303;52.160;-0.428;2023-07-24T07:36:26;3.83;;;2.23;;
20743;SDS011;56303;52.160;-0.428;2023-07-24T07:38:53;4.13;;;1.90;;
20743;SDS011;56303;52.160;-0.428;2023-07-24T07:41:20;3.70;;;2.37;;
20743;SDS011;56303;52.160;-0.428;2023-07-24T07:43:47;2.63;;;2.03;;
20743;SDS011;56303;52.160;-0.428;2023-07-24T07:46:14;2.37;;;1.80;;
20743;SDS011;56303;52.160;-0.428;2023-07-24T07:48:41;2.33;;;1.83;;
20743;SDS011;56303;52.160;-0.428;2023-07-24T07:51:08;2.50;;;1.97;;
20743;SDS011;56303;52.160;-0.428;2023-07-24T07:53:35;2.60;;;1.90;;
20743;SDS011;56303;52.160;-0.428;2023-07-24T07:56:02;2.77;;;2.00;;
20743;SDS011;56303;52.160;-0.428;2023-07-24T07:58:29;4.20;;;2.53;;
20743;SDS011;56303;52.160;-0.428;2023-07-24T08:00:56;4.33;;;1.80;;
20743;SDS011;56303;52.160;-0.428;2023-07-24T08:03:23;2.87;;;2.07;;
20743;SDS011;56303;52.160;-0.428;2023-07-24T08:05:50;4.77;;;2.10;;
20743;SDS011;56303;52.160;-0.428;2023-07-24T08:08:17;4.80;;;1.83;;
20743;SDS011;56303;52.160;-0.428;2023-07-24T08:10:44;3.43;;;2.10;;
20743;SDS011;56303;52.160;-0.428;2023-07-24T08:13:11;3.93;;;2.40;;
20743;SDS011;56303;52.160;-0.428;2023-07-24T08:15:38;3.00;;;2.20;;
20743;SDS011;56303;52.160;-0.428;2023-07-24T08:18:06;2.73;;;2.10;;
20743;SDS011;56303;52.160;-0.428;2023-07-24T08:20:36;4.97;;;2.63;;
20743;SDS011;56303;52.160;-0.428;2023-07-24T08:23:03;5.40;;;2.83;;
20743;SDS011;56303;52.160;-0.428;2023-07-24T08:25:30;5.10;;;2.77;;
20743;SDS011;56303;52.160;-0.428;2023-07-24T08:27:57;3.97;;;2.30;;
20743;SDS011;56303;52.160;-0.428;2023-07-24T08:30:27;4.30;;;2.73;;
20743;SDS011;56303;52.160;-0.428;2023-07-24T08:32:55;3.33;;;2.57;;
20743;SDS011;56303;52.160;-0.428;2023-07-24T08:35:22;7.80;;;2.80;;
20743;SDS011;56303;52.160;-0.428;2023-07-24T08:37:49;4.63;;;2.93;;
20743;SDS011;56303;52.160;-0.428;2023-07-24T08:40:16;8.13;;;3.30;;
20743;SDS011;56303;52.160;-0.428;2023-07-24T08:42:43;5.10;;;3.07;;
20743;SDS011;56303;52.160;-0.428;2023-07-24T08:45:11;5.00;;;2.73;;
20743;SDS011;56303;52.160;-0.428;2023-07-24T08:47:42;4.20;;;2.47;;
20743;SDS011;56303;52.160;-0.428;2023-07-24T08:50:13;3.90;;;2.60;;
20743;SDS011;56303;52.160;-0.428;2023-07-24T08:52:41;5.67;;;3.00;;
20743;SDS011;56303;52.160;-0.428;2023-07-24T08:55:10;3.80;;;2.57;;
20743;SDS011;56303;52.160;-0.428;2023-07-24T08:57:37;4.83;;;2.57;;
20743;SDS011;56303;52.160;-0.428;2023-07-24T09:00:04;4.50;;;2.70;;
20743;SDS011;56303;52.160;-0.428;2023-07-24T09:02:32;2.87;;;2.40;;
20743;SDS011;56303;52.160;-0.428;2023-07-24T09:05:03;3.57;;;2.80;;
20743;SDS011;56303;52.160;-0.428;2023-07-24T09:07:31;5.93;;;3.00;;
20743;SDS011;56303;52.160;-0.428;2023-07-24T09:09:58;7.30;;;2.77;;
20743;SDS011;56303;52.160;-0.428;2023-07-24T09:12:25;2.97;;;2.60;;
20743;SDS011;56303;52.160;-0.428;2023-07-24T09:15:04;3.63;;;2.47;;
20743;SDS011;56303;52.160;-0.428;2023-07-24T09:17:33;4.83;;;2.73;;
20743;SDS011;56303;52.160;-0.428;2023-07-24T09:20:01;4.67;;;2.20;;
20743;SDS011;56303;52.160;-0.428;2023-07-24T09:22:30;3.53;;;2.60;;
20743;SDS011;56303;52.160;-0.428;2023-07-24T09:24:59;6.40;;;2.63;;
20743;SDS011;56303;52.160;-0.428;2023-07-24T09:27:29;5.23;;;2.60;;
20743;SDS011;56303;52.160;-0.428;2023-07-24T09:29:58;2.50;;;2.17;;
20743;SDS011;56303;52.160;-0.428;2023-07-24T09:32:26;3.10;;;2.40;;
20743;SDS011;56303;52.160;-0.428;2023-07-24T09:34:54;2.90;;;2.00;;
20743;SDS011;56303;52.160;-0.428;2023-07-24T09:39:51;4.20;;;2.50;;
20743;SDS011;56303;52.160;-0.428;2023-07-24T09:42:27;4.10;;;2.30;;
20743;SDS011;56303;52.160;-0.428;2023-07-24T09:45:23;4.00;;;2.30;;
20743;SDS011;56303;52.160;-0.428;2023-07-24T09:47:52;4.93;;;2.93;;
20743;SDS011;56303;52.160;-0.428;2023-07-24T09:50:29;3.33;;;2.47;;
20743;SDS011;56303;52.160;-0.428;2023-07-24T09:52:57;3.90;;;2.93;;
20743;SDS011;56303;52.160;-0.428;2023-07-24T09:55:34;6.93;;;3.40;;
20743;SDS011;56303;52.160;-0.428;2023-07-24T09:58:09;4.20;;;3.10;;
20743;SDS011;56303;52.160;-0.428;2023-07-24T10:00:38;6.67;;;3.83;;
20743;SDS011;56303;52.160;-0.428;2023-07-24T10:03:05;5.23;;;4.53;;
20743;SDS011;56303;52.160;-0.428;2023-07-24T10:05:32;9.70;;;5.50;;
20743;SDS011;56303;52.160;-0.428;2023-07-24T10:07:59;11.63;;;8.03;;
20743;SDS011;56303;52.160;-0.428;2023-07-24T10:10:26;11.70;;;8.40;;
20743;SDS011;56303;52.160;-0.428;2023-07-24T10:12:55;11.83;;;9.37;;
20743;SDS011;56303;52.160;-0.428;2023-07-24T10:15:22;12.17;;;9.87;;
20743;SDS011;56303;52.160;-0.428;2023-07-24T10:17:49;7.63;;;4.93;;
20743;SDS011;56303;52.160;-0.428;2023-07-24T10:20:32;6.40;;;4.30;;
20743;SDS011;56303;52.160;-0.428;2023-07-24T10:23:02;8.90;;;4.40;;
20743;SDS011;56303;52.160;-0.428;2023-07-24T10:25:30;8.23;;;4.80;;
20743;SDS011;56303;52.160;-0.428;2023-07-24T10:28:01;4.47;;;2.97;;
20743;SDS011;56303;52.160;-0.428;2023-07-24T10:30:34;5.70;;;3.30;;
20743;SDS011;56303;52.160;-0.428;2023-07-24T10:33:11;5.97;;;2.90;;
20743;SDS011;56303;52.160;-0.428;2023-07-24T10:35:42;5.80;;;3.67;;
20743;SDS011;56303;52.160;-0.428;2023-07-24T10:38:10;5.60;;;4.47;;
20743;SDS011;56303;52.160;-0.428;2023-07-24T10:40:40;7.23;;;4.43;;
20743;SDS011;56303;52.160;-0.428;2023-07-24T10:43:26;6.10;;;4.30;;
20743;SDS011;56303;52.160;-0.428;2023-07-24T10:45:53;9.20;;;4.50;;
20743;SDS011;56303;52.160;-0.428;2023-07-24T10:48:21;7.13;;;4.20;;
20743;SDS011;56303;52.160;-0.428;2023-07-24T10:50:51;6.73;;;3.13;;
20743;SDS011;56303;52.160;-0.428;2023-07-24T10:53:20;7.13;;;3.23;;
20743;SDS011;56303;52.160;-0.428;2023-07-24T10:55:49;6.33;;;3.23;;
20743;SDS011;56303;52.160;-0.428;2023-07-24T10:58:17;7.30;;;4.60;;
20743;SDS011;56303;52.160;-0.428;2023-07-24T11:00:44;7.77;;;4.20;;
20743;SDS011;56303;52.160;-0.428;2023-07-24T11:03:14;7.43;;;3.97;;
20743;SDS011;56303;52.160;-0.428;2023-07-24T11:05:41;5.03;;;3.10;;
20743;SDS011;56303;52.160;-0.428;2023-07-24T11:08:10;4.93;;;3.00;;
20743;SDS011;56303;52.160;-0.428;2023-07-24T11:10:48;5.50;;;3.27;;
20743;SDS011;56303;52.160;-0.428;2023-07-24T11:13:17;6.90;;;3.33;;
20743;SDS011;56303;52.160;-0.428;2023-07-24T11:15:45;5.83;;;3.00;;
20743;SDS011;56303;52.160;-0.428;2023-07-24T11:18:13;8.17;;;3.40;;
20743;SDS011;56303;52.160;-0.428;2023-07-24T11:20:44;5.87;;;2.70;;
20743;SDS011;56303;52.160;-0.428;2023-07-24T11:23:12;5.70;;;3.43;;
20743;SDS011;56303;52.160;-0.428;2023-07-24T11:25:40;5.57;;;2.77;;
20743;SDS011;56303;52.160;-0.428;2023-07-24T11:28:10;5.33;;;2.93;;
20743;SDS011;56303;52.160;-0.428;2023-07-24T11:30:39;7.13;;;3.13;;
20743;SDS011;56303;52.160;-0.428;2023-07-24T11:33:08;5.80;;;3.47;;
20743;SDS011;56303;52.160;-0.428;2023-07-24T11:35:36;4.07;;;2.60;;
20743;SDS011;56303;52.160;-0.428;2023-07-24T11:38:10;7.57;;;3.03;;
20743;SDS011;56303;52.160;-0.428;2023-07-24T11:40:38;9.70;;;3.43;;
20743;SDS011;56303;52.160;-0.428;2023-07-24T11:43:23;3.80;;;2.50;;
20743;SDS011;56303;52.160;-0.428;2023-07-24T11:45:51;5.23;;;2.40;;
20743;SDS011;56303;52.160;-0.428;2023-07-24T11:48:20;4.70;;;2.73;;
20743;SDS011;56303;52.160;-0.428;2023-07-24T11:50:51;5.13;;;2.77;;
20743;SDS011;56303;52.160;-0.428;2023-07-24T11:55:57;5.23;;;2.57;;
20743;SDS011;56303;52.160;-0.428;2023-07-24T11:58:25;7.27;;;2.57;;
20743;SDS011;56303;52.160;-0.428;2023-07-24T12:00:53;9.90;;;2.80;;
20743;SDS011;56303;52.160;-0.428;2023-07-24T12:05:51;5.20;;;2.57;;
20743;SDS011;56303;52.160;-0.428;2023-07-24T12:08:29;8.50;;;2.40;;
20743;SDS011;56303;52.160;-0.428;2023-07-24T12:10:57;4.10;;;2.27;;
20743;SDS011;56303;52.160;-0.428;2023-07-24T12:13:24;5.13;;;2.73;;
20743;SDS011;56303;52.160;-0.428;2023-07-24T12:15:51;7.87;;;2.63;;
20743;SDS011;56303;52.160;-0.428;2023-07-24T12:18:18;5.37;;;2.97;;
20743;SDS011;56303;52.160;-0.428;2023-07-24T12:20:45;6.37;;;3.00;;
20743;SDS011;56303;52.160;-0.428;2023-07-24T12:23:13;6.23;;;3.10;;
20743;SDS011;56303;52.160;-0.428;2023-07-24T12:25:40;7.70;;;3.00;;
20743;SDS011;56303;52.160;-0.428;2023-07-24T12:28:07;7.57;;;2.90;;
20743;SDS011;56303;52.160;-0.428;2023-07-24T12:30:34;6.03;;;2.83;;
20743;SDS011;56303;52.160;-0.428;2023-07-24T12:33:01;3.63;;;2.60;;
20743;SDS011;56303;52.160;-0.428;2023-07-24T12:35:27;7.20;;;3.17;;
20743;SDS011;56303;52.160;-0.428;2023-07-24T12:37:55;5.97;;;3.33;;
20743;SDS011;56303;52.160;-0.428;2023-07-24T12:40:22;8.23;;;3.87;;
20743;SDS011;56303;52.160;-0.428;2023-07-24T12:42:48;3.90;;;2.93;;
20743;SDS011;56303;52.160;-0.428;2023-07-24T12:45:15;6.23;;;3.33;;
20743;SDS011;56303;52.160;-0.428;2023-07-24T12:47:42;6.93;;;2.70;;
20743;SDS011;56303;52.160;-0.428;2023-07-24T12:50:09;4.40;;;2.70;;
20743;SDS011;56303;52.160;-0.428;2023-07-24T12:52:36;5.30;;;2.60;;
20743;SDS011;56303;52.160;-0.428;2023-07-24T12:55:04;3.90;;;2.50;;
20743;SDS011;56303;52.160;-0.428;2023-07-24T12:57:31;6.63;;;3.40;;
20743;SDS011;56303;52.160;-0.428;2023-07-24T12:59:58;3.23;;;2.33;;
20743;SDS011;56303;52.160;-0.428;2023-07-24T13:02:25;5.20;;;2.63;;
20743;SDS011;56303;52.160;-0.428;2023-07-24T13:04:52;7.53;;;2.87;;
20743;SDS011;56303;52.160;-0.428;2023-07-24T13:07:19;5.00;;;2.67;;
20743;SDS011;56303;52.160;-0.428;2023-07-24T13:09:45;6.10;;;2.90;;
20743;SDS011;56303;52.160;-0.428;2023-07-24T13:12:12;8.03;;;3.20;;
20743;SDS011;56303;52.160;-0.428;2023-07-24T13:14:39;9.37;;;3.50;;
20743;SDS011;56303;52.160;-0.428;2023-07-24T13:17:08;6.13;;;3.47;;
20743;SDS011;56303;52.160;-0.428;2023-07-24T13:19:35;7.17;;;3.20;;
20743;SDS011;56303;52.160;-0.428;2023-07-24T13:22:02;8.23;;;4.10;;
20743;SDS011;56303;52.160;-0.428;2023-07-24T13:24:30;5.60;;;2.80;;
20743;SDS011;56303;52.160;-0.428;2023-07-24T13:26:56;5.87;;;3.03;;
20743;SDS011;56303;52.160;-0.428;2023-07-24T13:29:23;7.10;;;3.10;;
20743;SDS011;56303;52.160;-0.428;2023-07-24T13:31:51;9.30;;;3.23;;
20743;SDS011;56303;52.160;-0.428;2023-07-24T13:34:19;8.10;;;3.57;;
20743;SDS011;56303;52.160;-0.428;2023-07-24T13:36:46;7.57;;;3.17;;
20743;SDS011;56303;52.160;-0.428;2023-07-24T13:39:14;6.80;;;3.37;;
20743;SDS011;56303;52.160;-0.428;2023-07-24T13:41:41;6.80;;;3.83;;
20743;SDS011;56303;52.160;-0.428;2023-07-24T13:44:08;8.73;;;4.50;;
20743;SDS011;56303;52.160;-0.428;2023-07-24T13:46:36;5.83;;;3.33;;
20743;SDS011;56303;52.160;-0.428;2023-07-24T13:49:05;6.57;;;3.33;;
20743;SDS011;56303;52.160;-0.428;2023-07-24T13:51:33;6.03;;;3.00;;
20743;SDS011;56303;52.160;-0.428;2023-07-24T13:54:00;6.43;;;2.50;;
20743;SDS011;56303;52.160;-0.428;2023-07-24T13:56:29;5.27;;;2.77;;
20743;SDS011;56303;52.160;-0.428;2023-07-24T13:59:00;4.87;;;2.70;;
20743;SDS011;56303;52.160;-0.428;2023-07-24T14:01:27;6.77;;;2.70;;
20743;SDS011;56303;52.160;-0.428;2023-07-24T14:03:55;6.07;;;2.70;;
20743;SDS011;56303;52.160;-0.428;2023-07-24T14:06:22;5.47;;;2.43;;
20743;SDS011;56303;52.160;-0.428;2023-07-24T14:08:48;6.40;;;2.30;;
20743;SDS011;56303;52.160;-0.428;2023-07-24T14:11:15;10.13;;;2.83;;
20743;SDS011;56303;52.160;-0.428;2023-07-24T14:13:42;8.90;;;3.27;;
20743;SDS011;56303;52.160;-0.428;2023-07-24T14:16:11;5.73;;;2.60;;
20743;SDS011;56303;52.160;-0.428;2023-07-24T14:18:38;6.10;;;2.47;;
20743;SDS011;56303;52.160;-0.428;2023-07-24T14:21:05;4.43;;;2.57;;
20743;SDS011;56303;52.160;-0.428;2023-07-24T14:23:32;5.80;;;3.07;;
20743;SDS011;56303;52.160;-0.428;2023-07-24T14:25:58;7.93;;;3.80;;
20743;SDS011;56303;52.160;-0.428;2023-07-24T14:28:25;8.37;;;3.60;;
20743;SDS011;56303;52.160;-0.428;2023-07-24T14:30:52;5.37;;;3.10;;
20743;SDS011;56303;52.160;-0.428;2023-07-24T14:33:19;5.60;;;2.83;;
20743;SDS011;56303;52.160;-0.428;2023-07-24T14:35:47;10.13;;;3.50;;
20743;SDS011;56303;52.160;-0.428;2023-07-24T14:38:14;6.73;;;2.67;;
20743;SDS011;56303;52.160;-0.428;2023-07-24T14:40:41;7.13;;;3.00;;
20743;SDS011;56303;52.160;-0.428;2023-07-24T14:43:08;6.67;;;2.67;;
20743;SDS011;56303;52.160;-0.428;2023-07-24T14:45:34;8.13;;;2.80;;
20743;SDS011;56303;52.160;-0.428;2023-07-24T14:48:01;6.27;;;2.70;;
20743;SDS011;56303;52.160;-0.428;2023-07-24T14:50:28;11.43;;;3.10;;
20743;SDS011;56303;52.160;-0.428;2023-07-24T14:52:55;3.10;;;2.07;;
20743;SDS011;56303;52.160;-0.428;2023-07-24T14:55:22;5.30;;;2.63;;
20743;SDS011;56303;52.160;-0.428;2023-07-24T14:57:49;5.57;;;2.33;;
20743;SDS011;56303;52.160;-0.428;2023-07-24T15:00:16;7.53;;;2.70;;
20743;SDS011;56303;52.160;-0.428;2023-07-24T15:02:43;5.87;;;2.73;;
20743;SDS011;56303;52.160;-0.428;2023-07-24T15:05:10;6.87;;;2.30;;
20743;SDS011;56303;52.160;-0.428;2023-07-24T15:07:37;5.23;;;2.40;;
20743;SDS011;56303;52.160;-0.428;2023-07-24T15:10:04;6.50;;;3.20;;
20743;SDS011;56303;52.160;-0.428;2023-07-24T15:12:32;4.93;;;2.10;;
20743;SDS011;56303;52.160;-0.428;2023-07-24T15:14:59;3.70;;;2.20;;
20743;SDS011;56303;52.160;-0.428;2023-07-24T15:17:26;5.87;;;2.67;;
20743;SDS011;56303;52.160;-0.428;2023-07-24T15:19:53;6.37;;;2.57;;
20743;SDS011;56303;52.160;-0.428;2023-07-24T15:22:19;6.43;;;2.63;;
20743;SDS011;56303;52.160;-0.428;2023-07-24T15:24:46;5.80;;;2.33;;
20743;SDS011;56303;52.160;-0.428;2023-07-24T15:27:13;4.27;;;2.27;;
20743;SDS011;56303;52.160;-0.428;2023-07-24T15:29:40;3.73;;;2.27;;
20743;SDS011;56303;52.160;-0.428;2023-07-24T15:32:07;7.23;;;3.07;;
20743;SDS011;56303;52.160;-0.428;2023-07-24T15:34:34;7.30;;;2.40;;
20743;SDS011;56303;52.160;-0.428;2023-07-24T15:37:05;5.93;;;2.57;;
20743;SDS011;56303;52.160;-0.428;2023-07-24T15:39:32;6.53;;;2.47;;
20743;SDS011;56303;52.160;-0.428;2023-07-24T15:41:58;5.83;;;2.37;;
20743;SDS011;56303;52.160;-0.428;2023-07-24T15:44:25;4.10;;;2.27;;
20743;SDS011;56303;52.160;-0.428;2023-07-24T15:46:52;9.87;;;2.50;;
20743;SDS011;56303;52.160;-0.428;2023-07-24T15:49:19;7.27;;;3.23;;
20743;SDS011;56303;52.160;-0.428;2023-07-24T15:51:46;5.60;;;2.53;;
20743;SDS011;56303;52.160;-0.428;2023-07-24T15:54:14;6.10;;;2.40;;
20743;SDS011;56303;52.160;-0.428;2023-07-24T15:56:41;7.23;;;2.60;;
20743;SDS011;56303;52.160;-0.428;2023-07-24T15:59:08;5.30;;;2.40;;
20743;SDS011;56303;52.160;-0.428;2023-07-24T16:01:36;6.90;;;3.10;;
20743;SDS011;56303;52.160;-0.428;2023-07-24T16:04:03;4.97;;;2.70;;
20743;SDS011;56303;52.160;-0.428;2023-07-24T16:06:30;5.97;;;2.40;;
20743;SDS011;56303;52.160;-0.428;2023-07-24T16:08:57;7.17;;;2.70;;
20743;SDS011;56303;52.160;-0.428;2023-07-24T16:11:25;8.70;;;3.60;;